Time;durP1;ratioP1;P1;durP2;ratioP2;P2;SDS_P1;SDS_P2;PMS_P1;PMS_P2;Temp;Humidity;BMP_temperature;BMP_pressure;BME280_temperature;BME280_humidity;BME280_pressure;Samples;Min_cycle;Max_cycle;Signal;HPM_P1;HPM_P2
2022/07/26 00:00:55;;;;;;;2.28;1.67;;;21.60;99.90;;;;;;5093875;28;20126;-66
2022/07/26 00:03:20;;;;;;;1.60;0.70;;;21.40;99.90;;;;;;5093541;28;20040;-73
2022/07/26 00:05:46;;;;;;;1.02;0.75;;;21.60;99.90;;;;;;5111892;28;20039;-65
2022/07/26 00:08:12;;;;;;;1.40;0.85;;;21.30;99.90;;;;;;5111589;28;20035;-67
2022/07/26 00:10:48;;;;;;;2.60;0.85;;;21.20;99.90;;;;;;5111768;28;20031;-65
2022/07/26 00:13:16;;;;;;;4.22;0.90;;;21.30;99.90;;;;;;5109633;28;20097;-64
2022/07/26 00:15:42;;;;;;;1.17;1.05;;;21.30;99.90;;;;;;5093285;28;20506;-64
2022/07/26 00:18:08;;;;;;;1.80;0.80;;;21.30;99.90;;;;;;5111697;28;20612;-64
2022/07/26 00:20:34;;;;;;;1.65;0.80;;;21.30;99.90;;;;;;5111481;28;20047;-64
2022/07/26 00:23:00;;;;;;;1.45;0.88;;;21.10;99.90;;;;;;5111692;28;20403;-65
2022/07/26 00:25:26;;;;;;;2.05;0.80;;;21.20;99.90;;;;;;5111741;28;20083;-64
2022/07/26 00:27:52;;;;;;;1.05;0.85;;;21.20;99.90;;;;;;5111459;28;20143;-64
2022/07/26 00:30:18;;;;;;;2.63;1.00;;;21.00;99.90;;;;;;5092997;28;20582;-65
2022/07/26 00:32:44;;;;;;;3.78;0.90;;;21.20;99.90;;;;;;5111275;28;20127;-64
2022/07/26 00:35:10;;;;;;;2.25;0.73;;;21.30;99.90;;;;;;5111296;28;20126;-65
2022/07/26 00:37:36;;;;;;;1.73;0.95;;;21.20;99.90;;;;;;5111744;28;20028;-64
2022/07/26 00:40:03;;;;;;;1.98;1.13;;;21.30;99.90;;;;;;5111694;28;20047;-64
2022/07/26 00:42:29;;;;;;;2.13;0.70;;;21.20;99.90;;;;;;5111799;28;20039;-64
2022/07/26 00:44:55;;;;;;;1.77;1.10;;;21.20;99.90;;;;;;5111624;28;20031;-66
2022/07/26 00:47:21;;;;;;;2.67;1.15;;;21.20;99.90;;;;;;5111540;28;20031;-64
2022/07/26 00:49:46;;;;;;;1.27;0.90;;;21.20;99.90;;;;;;5111248;28;20144;-65
2022/07/26 00:52:12;;;;;;;1.38;0.80;;;21.20;99.90;;;;;;5111763;28;20092;-64
2022/07/26 00:54:42;;;;;;;1.65;0.95;;;21.20;99.90;;;;;;5111517;28;20039;-64
2022/07/26 00:57:08;;;;;;;1.30;0.80;;;21.20;99.90;;;;;;5110513;28;20502;-65
2022/07/26 00:59:34;;;;;;;1.40;0.80;;;21.00;99.90;;;;;;5115046;28;20110;-64
2022/07/26 01:02:01;;;;;;;2.35;0.95;;;21.10;99.90;;;;;;5114989;28;20196;-64
2022/07/26 01:04:27;;;;;;;2.45;0.93;;;21.00;99.90;;;;;;5096644;28;20035;-65
2022/07/26 01:06:53;;;;;;;2.50;1.27;;;21.00;99.90;;;;;;5114666;27;20114;-64
2022/07/26 01:09:19;;;;;;;1.15;0.93;;;20.90;99.90;;;;;;5114531;28;20048;-65
2022/07/26 01:11:45;;;;;;;3.60;1.13;;;;;;;;;;5112029;28;20372;-65
2022/07/26 01:14:11;;;;;;;1.70;1.15;;;20.90;99.90;;;;;;5114582;28;20043;-64
2022/07/26 01:16:37;;;;;;;1.38;0.88;;;20.90;99.90;;;;;;5115874;27;20050;-64
2022/07/26 01:19:03;;;;;;;2.88;1.25;;;20.90;99.90;;;;;;5114674;28;20043;-78
2022/07/26 01:21:30;;;;;;;1.27;0.93;;;20.80;99.90;;;;;;5114813;28;20067;-64
2022/07/26 01:23:55;;;;;;;2.30;0.77;;;20.80;99.90;;;;;;5112255;28;20046;-64
2022/07/26 01:26:21;;;;;;;2.20;1.20;;;20.90;99.90;;;;;;5111540;28;20035;-64
2022/07/26 01:28:48;;;;;;;2.90;1.20;;;20.90;99.90;;;;;;5112175;28;20503;-64
2022/07/26 01:31:14;;;;;;;2.33;1.05;;;20.90;99.90;;;;;;5114241;28;20202;-64
2022/07/26 01:33:40;;;;;;;3.53;1.05;;;;;;;;;;5114555;28;20071;-64
2022/07/26 01:36:07;;;;;;;2.90;0.98;;;20.70;99.90;;;;;;5114445;28;20044;-64
2022/07/26 01:38:33;;;;;;;4.20;1.50;;;20.50;99.90;;;;;;5114411;28;20453;-64
2022/07/26 01:40:59;;;;;;;2.25;0.95;;;20.60;99.90;;;;;;5114226;28;20147;-64
2022/07/26 01:43:25;;;;;;;1.73;1.10;;;20.50;99.90;;;;;;5114294;28;20071;-64
2022/07/26 01:45:51;;;;;;;2.97;1.13;;;20.70;99.90;;;;;;5114050;28;20050;-64
2022/07/26 01:48:16;;;;;;;2.10;0.98;;;20.70;99.90;;;;;;5114149;28;20597;-65
2022/07/26 01:50:42;;;;;;;3.63;1.20;;;20.60;99.90;;;;;;5114145;28;20596;-64
2022/07/26 01:53:08;;;;;;;3.00;1.25;;;20.70;99.90;;;;;;5114178;28;20046;-64
2022/07/26 01:55:34;;;;;;;1.75;1.02;;;20.60;99.90;;;;;;5113888;28;20127;-64
2022/07/26 01:58:00;;;;;;;2.10;1.00;;;20.60;99.90;;;;;;5113801;28;20143;-64
2022/07/26 02:00:26;;;;;;;2.10;0.95;;;20.70;99.90;;;;;;5111055;28;20119;-74
2022/07/26 02:02:51;;;;;;;3.17;1.40;;;20.90;99.90;;;;;;5113975;28;20062;-64
2022/07/26 02:05:17;;;;;;;2.13;1.08;;;20.90;99.90;;;;;;5113897;28;20092;-71
2022/07/26 02:07:43;;;;;;;1.25;0.93;;;20.90;99.90;;;;;;5113562;28;20063;-64
2022/07/26 02:10:10;;;;;;;1.83;1.40;;;21.00;99.90;;;;;;5113338;28;20052;-64
2022/07/26 02:12:36;;;;;;;2.03;1.13;;;20.90;99.90;;;;;;5113874;28;20044;-65
2022/07/26 02:15:05;;;;;;;2.28;1.30;;;20.80;99.90;;;;;;5113550;28;20522;-64
2022/07/26 02:17:30;;;;;;;4.00;1.70;;;20.80;99.90;;;;;;5113341;27;20091;-64
2022/07/26 02:19:56;;;;;;;1.83;1.20;;;20.80;99.90;;;;;;5113682;28;20043;-65
2022/07/26 02:22:22;;;;;;;3.20;1.20;;;20.90;99.90;;;;;;5113226;28;20047;-64
2022/07/26 02:24:49;;;;;;;1.20;0.90;;;20.80;99.90;;;;;;5113375;28;20046;-64
2022/07/26 02:27:15;;;;;;;5.90;1.33;;;20.70;99.90;;;;;;5113454;28;20032;-64
2022/07/26 02:29:41;;;;;;;2.88;1.27;;;20.70;99.90;;;;;;5096056;28;20139;-64
2022/07/26 02:32:07;;;;;;;5.85;1.30;;;20.60;99.90;;;;;;5114391;28;20028;-64
2022/07/26 02:34:33;;;;;;;4.78;1.25;;;20.40;99.90;;;;;;5114317;28;20055;-64
2022/07/26 02:36:59;;;;;;;3.00;1.40;;;20.40;99.90;;;;;;5114449;28;20401;-64
2022/07/26 02:39:28;;;;;;;2.17;1.17;;;20.40;99.90;;;;;;5114292;28;20039;-64
2022/07/26 02:41:55;;;;;;;2.63;1.17;;;20.40;99.90;;;;;;5114590;28;20042;-64
2022/07/26 02:44:21;;;;;;;1.60;1.30;;;20.60;99.90;;;;;;5096298;28;20074;-64
2022/07/26 02:46:47;;;;;;;1.02;0.88;;;20.60;99.90;;;;;;5114377;28;20071;-65
2022/07/26 02:49:12;;;;;;;1.45;0.93;;;20.50;99.90;;;;;;5113927;28;20113;-64
2022/07/26 02:51:38;;;;;;;2.15;1.23;;;20.70;99.90;;;;;;5114003;28;20089;-64
2022/07/26 02:54:04;;;;;;;5.25;1.30;;;20.60;99.90;;;;;;5114018;28;20047;-64
2022/07/26 02:56:30;;;;;;;3.53;1.08;;;20.40;99.90;;;;;;5114068;28;20042;-64
2022/07/26 02:58:56;;;;;;;2.33;1.02;;;20.30;99.90;;;;;;5113060;28;20054;-65
2022/07/26 03:01:21;;;;;;;1.45;1.00;;;20.40;99.90;;;;;;5113622;28;20043;-65
2022/07/26 03:03:47;;;;;;;6.28;1.20;;;20.30;99.90;;;;;;5113194;28;20074;-64
2022/07/26 03:06:13;;;;;;;2.55;1.30;;;20.30;99.90;;;;;;5114046;28;20043;-65
2022/07/26 03:08:39;;;;;;;1.92;1.15;;;20.00;99.90;;;;;;5113939;28;20036;-65
2022/07/26 03:11:05;;;;;;;5.85;1.20;;;20.00;99.90;;;;;;5114122;28;20074;-64
2022/07/26 03:13:31;;;;;;;4.10;1.33;;;20.20;99.90;;;;;;5113934;28;20402;-65
2022/07/26 03:15:57;;;;;;;4.63;1.00;;;20.10;99.90;;;;;;5113878;28;20032;-66
2022/07/26 03:18:23;;;;;;;3.15;1.27;;;20.10;99.90;;;;;;5112801;28;20042;-66
2022/07/26 03:20:52;;;;;;;5.50;1.40;;;20.00;99.90;;;;;;5101901;28;20035;-64
2022/07/26 03:23:17;;;;;;;1.15;0.85;;;20.10;99.90;;;;;;5110145;28;20047;-64
2022/07/26 03:25:43;;;;;;;1.92;1.02;;;20.10;99.90;;;;;;5111966;28;20048;-64
2022/07/26 03:28:09;;;;;;;3.72;1.15;;;20.10;99.90;;;;;;5112953;28;20040;-64
2022/07/26 03:30:35;;;;;;;1.85;1.20;;;20.20;99.90;;;;;;5114009;28;20154;-64
2022/07/26 03:33:01;;;;;;;2.95;1.15;;;20.10;99.90;;;;;;5130361;27;20067;-64
2022/07/26 03:35:27;;;;;;;3.58;1.25;;;20.10;99.90;;;;;;5133428;27;20041;-77
2022/07/26 03:37:52;;;;;;;4.38;1.35;;;19.90;99.90;;;;;;5133210;27;20039;-65
2022/07/26 03:40:19;;;;;;;1.90;1.05;;;;;;;;;;5120526;27;20096;-64
2022/07/26 03:42:46;;;;;;;2.85;1.00;;;19.70;99.90;;;;;;5118134;28;20099;-65
2022/07/26 03:45:13;;;;;;;1.77;0.98;;;19.70;99.90;;;;;;5133988;27;20035;-65
2022/07/26 03:47:39;;;;;;;6.47;1.17;;;19.50;99.90;;;;;;5133941;27;20039;-64
2022/07/26 03:50:06;;;;;;;3.50;1.00;;;19.60;99.90;;;;;;5116051;28;20039;-67
2022/07/26 03:52:32;;;;;;;5.47;0.95;;;19.70;99.90;;;;;;5112627;28;20039;-64
2022/07/26 03:54:58;;;;;;;6.40;1.30;;;19.60;99.90;;;;;;5112886;28;20088;-65
2022/07/26 03:57:23;;;;;;;3.00;1.20;;;19.60;99.90;;;;;;5113292;28;20036;-65
2022/07/26 03:59:49;;;;;;;2.95;1.20;;;19.70;99.90;;;;;;5111747;28;20071;-65
2022/07/26 04:02:15;;;;;;;5.07;1.17;;;19.80;99.90;;;;;;5112426;28;20043;-65
2022/07/26 04:04:41;;;;;;;1.58;1.05;;;19.80;99.90;;;;;;5111142;28;20043;-65
2022/07/26 04:07:06;;;;;;;4.97;1.13;;;19.60;99.90;;;;;;5109918;28;20165;-64
2022/07/26 04:09:32;;;;;;;2.80;1.35;;;19.70;99.90;;;;;;5111702;28;20086;-64
2022/07/26 04:11:58;;;;;;;1.83;1.00;;;19.60;99.90;;;;;;5112492;28;20039;-64
2022/07/26 04:14:24;;;;;;;3.63;0.80;;;19.60;99.90;;;;;;5112716;28;20064;-65
2022/07/26 04:16:49;;;;;;;2.97;1.30;;;19.60;99.90;;;;;;5112867;28;20035;-64
2022/07/26 04:19:15;;;;;;;2.10;1.10;;;19.50;99.90;;;;;;5113264;28;20126;-64
2022/07/26 04:21:41;;;;;;;1.67;1.05;;;19.60;99.90;;;;;;5111881;28;20043;-64
2022/07/26 04:24:07;;;;;;;2.10;1.13;;;19.50;99.90;;;;;;5113174;28;20039;-64
2022/07/26 04:26:33;;;;;;;3.25;1.10;;;19.50;99.90;;;;;;5113122;28;20039;-65
2022/07/26 04:28:59;;;;;;;1.63;1.13;;;19.50;99.90;;;;;;5112937;28;20448;-65
2022/07/26 04:31:24;;;;;;;2.72;1.23;;;19.20;99.90;;;;;;5113234;28;20047;-65
2022/07/26 04:33:51;;;;;;;3.28;1.42;;;19.20;99.90;;;;;;5116847;27;20374;-66
2022/07/26 04:36:17;;;;;;;1.55;0.80;;;19.10;99.90;;;;;;5116891;28;20058;-65
2022/07/26 04:38:43;;;;;;;3.25;1.00;;;19.20;99.90;;;;;;5116943;28;20510;-64
2022/07/26 04:41:08;;;;;;;4.82;1.20;;;19.20;99.90;;;;;;5116006;28;20050;-64
2022/07/26 04:43:35;;;;;;;3.97;1.20;;;19.10;99.90;;;;;;5115949;28;20047;-65
2022/07/26 04:46:00;;;;;;;3.50;1.17;;;19.10;99.90;;;;;;5116546;28;20097;-74
2022/07/26 04:48:27;;;;;;;3.65;1.00;;;19.00;99.90;;;;;;5116555;28;20048;-68
2022/07/26 04:50:53;;;;;;;2.55;1.13;;;18.80;99.90;;;;;;5115291;28;20050;-82
2022/07/26 04:53:19;;;;;;;2.42;0.98;;;18.90;99.90;;;;;;5116471;28;20035;-64
2022/07/26 04:55:45;;;;;;;4.97;1.02;;;18.90;99.90;;;;;;5115699;28;20051;-67
2022/07/26 04:58:11;;;;;;;4.43;1.35;;;18.90;99.90;;;;;;5116263;28;20051;-78
2022/07/26 05:00:37;;;;;;;3.20;1.00;;;18.90;99.90;;;;;;5116558;28;20047;-65
2022/07/26 05:03:03;;;;;;;4.88;1.40;;;19.00;99.90;;;;;;5116593;28;20122;-65
2022/07/26 05:05:31;;;;;;;3.42;1.20;;;19.00;99.90;;;;;;5116559;28;20080;-78
2022/07/26 05:07:59;;;;;;;3.95;1.27;;;19.00;99.90;;;;;;5115888;27;20108;-66
2022/07/26 05:10:34;;;;;;;4.53;1.27;;;19.00;99.90;;;;;;5114504;27;20051;-65
2022/07/26 05:13:02;;;;;;;3.20;1.08;;;18.90;99.90;;;;;;5115884;27;20067;-79
2022/07/26 05:15:29;;;;;;;3.30;1.27;;;19.00;99.90;;;;;;5115972;28;20046;-81
2022/07/26 05:17:56;;;;;;;3.63;1.05;;;19.00;99.90;;;;;;5116342;27;20118;-77
2022/07/26 05:20:23;;;;;;;3.58;1.10;;;19.00;99.90;;;;;;5116212;28;20031;-82
2022/07/26 05:22:48;;;;;;;3.88;1.20;;;19.20;99.90;;;;;;5116046;28;20039;-78
2022/07/26 05:25:14;;;;;;;2.70;1.10;;;19.10;99.90;;;;;;5116145;28;20043;-65
2022/07/26 05:27:40;;;;;;;2.13;1.10;;;19.30;99.90;;;;;;5112241;28;20066;-71
2022/07/26 05:30:08;;;;;;;5.07;1.20;;;19.50;99.90;;;;;;5074972;28;20052;-66
2022/07/26 05:32:34;;;;;;;3.15;0.88;;;19.50;99.90;;;;;;5113724;28;20414;-71
2022/07/26 05:34:59;;;;;;;9.38;1.17;;;19.60;99.90;;;;;;5115629;28;20051;-77
2022/07/26 05:37:26;;;;;;;5.57;0.93;;;19.60;99.90;;;;;;5114325;28;20048;-66
2022/07/26 05:39:52;;;;;;;4.30;0.80;;;19.60;99.90;;;;;;5115623;28;20043;-78
2022/07/26 05:42:17;;;;;;;4.72;1.10;;;19.40;99.90;;;;;;5115498;28;20160;-73
2022/07/26 05:44:43;;;;;;;2.45;0.88;;;19.60;99.90;;;;;;5115401;28;20089;-66
2022/07/26 05:47:09;;;;;;;4.28;1.27;;;19.90;99.90;;;;;;5115588;28;20402;-77
2022/07/26 05:49:35;;;;;;;5.40;1.00;;;20.10;99.90;;;;;;5115534;28;20043;-80
2022/07/26 05:52:01;;;;;;;4.22;0.70;;;20.40;99.90;;;;;;5115609;28;20040;-77
2022/07/26 05:54:26;;;;;;;3.50;1.10;;;20.40;99.90;;;;;;5115607;28;20036;-73
2022/07/26 05:56:52;;;;;;;1.95;0.80;;;20.40;99.90;;;;;;5115534;28;20044;-74
2022/07/26 05:59:18;;;;;;;1.83;0.90;;;20.60;99.90;;;;;;5115289;28;20045;-72
2022/07/26 06:01:43;;;;;;;3.20;1.00;;;20.80;99.90;;;;;;5115434;28;20050;-66
2022/07/26 06:04:09;;;;;;;3.83;1.20;;;20.40;99.90;;;;;;5115450;28;20047;-79
2022/07/26 06:06:35;;;;;;;4.05;1.02;;;20.60;99.90;;;;;;5115247;28;20043;-75
2022/07/26 06:09:01;;;;;;;2.75;1.08;;;20.70;99.90;;;;;;5115121;28;20059;-79
2022/07/26 06:11:27;;;;;;;5.10;0.98;;;20.50;99.90;;;;;;5115265;28;20498;-69
2022/07/26 06:13:53;;;;;;;2.90;0.85;;;20.50;99.90;;;;;;5114975;28;20051;-77
2022/07/26 06:16:19;;;;;;;2.33;0.98;;;20.40;99.90;;;;;;5114746;28;20039;-75
2022/07/26 06:18:44;;;;;;;4.80;1.00;;;20.50;99.90;;;;;;5114768;28;20666;-65
2022/07/26 06:21:11;;;;;;;4.68;1.45;;;20.30;99.90;;;;;;5096449;28;20414;-71
2022/07/26 06:23:37;;;;;;;5.63;1.17;;;20.50;99.90;;;;;;5114445;28;20043;-73
2022/07/26 06:26:04;;;;;;;5.78;1.00;;;20.30;99.90;;;;;;5114835;28;20047;-67
2022/07/26 06:28:30;;;;;;;3.65;1.00;;;20.10;99.90;;;;;;5114522;28;20126;-77
2022/07/26 06:30:56;;;;;;;3.15;0.95;;;20.70;99.90;;;;;;5114619;28;20043;-66
2022/07/26 06:33:21;;;;;;;4.88;1.77;;;20.50;99.90;;;;;;5114300;28;20036;-69
2022/07/26 06:35:47;;;;;;;2.22;0.93;;;20.00;99.90;;;;;;5114352;28;20043;-66
2022/07/26 06:38:13;;;;;;;2.75;0.98;;;20.90;99.90;;;;;;5114608;28;20063;-65
2022/07/26 06:40:39;;;;;;;5.10;1.02;;;21.10;99.90;;;;;;5114588;28;20067;-68
2022/07/26 06:43:04;;;;;;;4.18;0.82;;;21.80;99.90;;;;;;5114576;28;20052;-65
2022/07/26 06:45:31;;;;;;;2.47;0.70;;;22.20;98.90;;;;;;5114481;28;20574;-75
2022/07/26 06:47:57;;;;;;;2.63;1.08;;;21.90;98.70;;;;;;5114377;28;20078;-69
2022/07/26 06:50:23;;;;;;;1.92;0.90;;;21.80;98.80;;;;;;5114254;28;20063;-65
2022/07/26 06:52:49;;;;;;;1.27;0.77;;;22.20;98.40;;;;;;5114472;28;20553;-75
2022/07/26 06:55:14;;;;;;;3.42;0.90;;;21.90;98.20;;;;;;5113946;28;20039;-64
2022/07/26 06:57:41;;;;;;;2.60;0.75;;;21.90;98.30;;;;;;5114165;28;20047;-65
2022/07/26 07:00:08;;;;;;;3.25;1.55;;;21.90;98.50;;;;;;5113988;28;20051;-75
2022/07/26 07:02:34;;;;;;;3.13;0.82;;;22.50;98.60;;;;;;5114071;28;20039;-66
2022/07/26 07:05:00;;;;;;;2.60;1.27;;;22.50;97.40;;;;;;5114218;28;20044;-72
2022/07/26 07:07:25;;;;;;;5.15;1.20;;;23.00;98.40;;;;;;5114138;28;20042;-65
2022/07/26 07:09:51;;;;;;;1.95;0.77;;;23.60;97.50;;;;;;5113743;28;20063;-80
2022/07/26 07:12:17;;;;;;;1.38;0.70;;;23.60;95.50;;;;;;5113807;28;20394;-73
2022/07/26 07:14:43;;;;;;;6.22;1.65;;;23.20;99.90;;;;;;5114223;28;20092;-66
2022/07/26 07:17:09;;;;;;;1.73;0.80;;;23.10;96.70;;;;;;5113713;28;20055;-68
2022/07/26 07:19:36;;;;;;;3.20;1.08;;;23.60;96.60;;;;;;5113724;28;20046;-65
2022/07/26 07:22:05;;;;;;;1.88;0.70;;;23.80;95.40;;;;;;5113746;28;20088;-69
2022/07/26 07:24:31;;;;;;;3.20;1.33;;;23.80;95.10;;;;;;5113774;28;20122;-65
2022/07/26 07:26:59;;;;;;;3.72;1.17;;;24.00;94.60;;;;;;5113794;28;20154;-66
2022/07/26 07:29:25;;;;;;;2.80;1.15;;;24.30;94.60;;;;;;5113664;28;20055;-70
2022/07/26 07:31:51;;;;;;;1.45;0.80;;;23.90;94.20;;;;;;5095569;28;20044;-67
2022/07/26 07:34:19;;;;;;;2.95;0.90;;;24.00;94.20;;;;;;5113573;28;20032;-65
2022/07/26 07:36:45;;;;;;;2.95;0.80;;;23.70;94.50;;;;;;5113692;28;20096;-65
2022/07/26 07:39:11;;;;;;;12.57;1.00;;;24.30;94.00;;;;;;5113380;28;20043;-73
2022/07/26 07:41:37;;;;;;;2.88;1.15;;;24.10;93.60;;;;;;5113450;28;20055;-75
2022/07/26 07:44:04;;;;;;;2.13;0.88;;;24.80;93.70;;;;;;5113401;28;20368;-78
2022/07/26 07:46:30;;;;;;;1.85;0.95;;;24.40;93.20;;;;;;5113338;28;20100;-77
2022/07/26 07:48:58;;;;;;;2.78;0.80;;;24.80;93.00;;;;;;5113293;28;20047;-68
2022/07/26 07:51:24;;;;;;;3.58;0.95;;;24.90;92.80;;;;;;5113278;28;20044;-78
2022/07/26 07:53:50;;;;;;;8.07;0.93;;;24.30;92.90;;;;;;5113205;28;20040;-79
2022/07/26 07:56:16;;;;;;;0.70;0.68;;;24.40;93.10;;;;;;5112944;28;20040;-75
2022/07/26 07:58:42;;;;;;;7.65;0.80;;;24.30;93.10;;;;;;5113035;28;20414;-70
2022/07/26 08:01:07;;;;;;;1.52;0.90;;;24.90;92.60;;;;;;5094866;28;20024;-65
2022/07/26 08:03:33;;;;;;;3.55;0.90;;;25.30;93.10;;;;;;5113237;28;20039;-66
2022/07/26 08:06:00;;;;;;;5.97;0.90;;;24.80;92.30;;;;;;5113219;28;20032;-77
2022/07/26 08:08:25;;;;;;;2.72;0.98;;;24.10;92.70;;;;;;5116402;28;20461;-65
2022/07/26 08:10:51;;;;;;;1.95;0.70;;;23.80;93.40;;;;;;5117427;28;20055;-80
2022/07/26 08:13:17;;;;;;;1.80;0.80;;;24.10;92.80;;;;;;5117493;28;20047;-65
2022/07/26 08:15:43;;;;;;;2.38;0.90;;;24.30;93.60;;;;;;5117366;28;20100;-66
2022/07/26 08:18:09;;;;;;;1.92;0.93;;;25.10;92.50;;;;;;5117469;28;20031;-77
2022/07/26 08:20:35;;;;;;;1.77;0.90;;;24.90;92.80;;;;;;5117407;28;20448;-76
2022/07/26 08:23:00;;;;;;;2.60;0.95;;;24.10;92.40;;;;;;5117401;28;20126;-80
2022/07/26 08:25:26;;;;;;;3.20;0.95;;;24.00;92.80;;;;;;5117318;28;20028;-66
2022/07/26 08:27:52;;;;;;;5.80;1.05;;;23.90;93.10;;;;;;5117157;28;20074;-69
2022/07/26 08:30:18;;;;;;;2.00;0.98;;;24.00;93.30;;;;;;5116953;28;20050;-65
2022/07/26 08:32:43;;;;;;;1.80;0.70;;;24.10;92.90;;;;;;5117076;28;20051;-67
2022/07/26 08:35:10;;;;;;;2.13;0.75;;;24.10;93.10;;;;;;5116808;28;20039;-81
2022/07/26 08:37:36;;;;;;;3.13;1.27;;;24.50;93.10;;;;;;5117090;28;20067;-79
2022/07/26 08:40:04;;;;;;;2.88;1.17;;;25.10;92.20;;;;;;5116990;28;20074;-65
2022/07/26 08:42:30;;;;;;;3.10;1.05;;;25.50;92.40;;;;;;5116868;28;20158;-77
2022/07/26 08:44:56;;;;;;;3.35;0.70;;;25.40;91.00;;;;;;5098600;28;20044;-64
2022/07/26 08:47:22;;;;;;;4.88;1.30;;;25.70;92.20;;;;;;5116394;28;20039;-80
2022/07/26 08:49:48;;;;;;;1.40;0.70;;;26.10;91.40;;;;;;5116758;28;20051;-68
2022/07/26 08:52:15;;;;;;;3.47;1.00;;;25.50;89.70;;;;;;5116812;28;20122;-79
2022/07/26 08:54:48;;;;;;;3.88;1.17;;;25.90;91.50;;;;;;5116694;28;20039;-79
2022/07/26 08:57:14;;;;;;;7.43;1.10;;;25.90;90.80;;;;;;5116664;28;20051;-66
2022/07/26 08:59:40;;;;;;;6.35;1.17;;;25.70;89.70;;;;;;5115970;28;20047;-78
2022/07/26 09:02:10;;;;;;;9.02;1.50;;;25.50;90.70;;;;;;5115406;28;20106;-79
2022/07/26 09:04:39;;;;;;;1.55;0.77;;;25.10;90.60;;;;;;5115309;28;20414;-66
2022/07/26 09:07:25;;;;;;;3.15;1.10;;;25.20;90.50;;;;;;5115327;28;20039;-76
2022/07/26 09:10:02;;;;;;;3.00;0.90;;;24.80;89.90;;;;;;5114636;28;20130;-77
2022/07/26 09:12:30;;;;;;;3.58;0.93;;;24.40;90.60;;;;;;5115054;28;20043;-66
2022/07/26 09:14:57;;;;;;;3.78;1.00;;;23.90;91.50;;;;;;5115145;28;20401;-67
2022/07/26 09:17:36;;;;;;;14.52;2.38;;;24.10;91.00;;;;;;5114689;28;20065;-69
2022/07/26 09:20:12;;;;;;;2.33;1.00;;;24.00;91.30;;;;;;5115123;28;20067;-70
2022/07/26 09:22:57;;;;;;;3.65;1.30;;;23.80;91.70;;;;;;5115102;28;20035;-69
2022/07/26 09:25:24;;;;;;;2.03;1.00;;;25.10;92.10;;;;;;5093781;28;20044;-66
2022/07/26 09:27:51;;;;;;;2.15;1.25;;;26.00;89.10;;;;;;5093663;28;20093;-65
2022/07/26 09:30:17;;;;;;;2.83;1.02;;;26.50;91.20;;;;;;5102453;28;20544;-66
2022/07/26 09:33:01;;;;;;;5.38;1.00;;;26.00;88.60;;;;;;5098124;28;20039;-67
2022/07/26 09:35:28;;;;;;;3.72;0.85;;;25.40;88.50;;;;;;5100383;28;20364;-65
2022/07/26 09:37:54;;;;;;;2.15;0.90;;;25.70;88.10;;;;;;5114555;28;20092;-74
2022/07/26 09:40:20;;;;;;;1.98;1.00;;;25.40;89.40;;;;;;5114840;28;20062;-68
2022/07/26 09:43:05;;;;;;;1.38;0.77;;;24.60;88.90;;;;;;5114829;28;20502;-65
2022/07/26 09:45:34;;;;;;;1.40;0.73;;;24.80;90.20;;;;;;5114711;28;20028;-65
2022/07/26 09:48:01;;;;;;;1.30;0.60;;;25.10;90.40;;;;;;5114568;28;20044;-65
2022/07/26 09:50:29;;;;;;;3.92;0.90;;;24.90;84.50;;;;;;5114235;28;20055;-65
2022/07/26 09:52:59;;;;;;;2.75;0.75;;;;;;;;;;5114487;28;20047;-66
2022/07/26 09:55:25;;;;;;;;;;;23.50;99.90;;;;;;5114889;28;20040;-64
2022/07/26 09:57:51;;;;;;;1.45;0.70;;;23.10;88.40;;;;;;5114181;28;19912;-64
2022/07/26 10:00:18;;;;;;;1.80;1.30;;;23.20;90.70;;;;;;5071017;28;1243895;-72
2022/07/26 10:02:43;;;;;;;1.33;0.90;;;23.30;90.80;;;;;;5097088;28;20394;-64
2022/07/26 10:05:09;;;;;;;2.92;1.10;;;23.50;88.60;;;;;;5115116;28;20118;-65
2022/07/26 10:07:36;;;;;;;1.88;0.80;;;23.00;89.00;;;;;;5115181;28;20140;-66
2022/07/26 10:10:10;;;;;;;1.33;0.70;;;23.20;90.10;;;;;;5115048;28;20499;-72
2022/07/26 10:12:36;;;;;;;2.13;1.02;;;23.50;88.50;;;;;;5115354;28;20047;-67
2022/07/26 10:15:02;;;;;;;1.13;0.70;;;23.60;86.80;;;;;;5115224;28;20064;-64
2022/07/26 10:17:28;;;;;;;6.05;0.98;;;24.90;89.80;;;;;;5115119;28;20063;-71
2022/07/26 10:20:02;;;;;;;1.42;0.70;;;26.00;84.40;;;;;;5115121;28;20067;-64
2022/07/26 10:22:31;;;;;;;1.45;0.90;;;25.70;83.90;;;;;;5115025;28;20032;-69
2022/07/26 10:25:16;;;;;;;2.00;0.60;;;24.50;85.70;;;;;;5114916;28;20124;-64
2022/07/26 10:27:45;;;;;;;2.58;0.90;;;24.00;85.30;;;;;;5114769;28;20043;-76
2022/07/26 10:30:24;;;;;;;2.60;1.13;;;;;;;;;;5113958;28;20055;-66
2022/07/26 10:32:50;;;;;;;4.65;3.10;;;23.10;86.80;;;;;;5113114;28;20409;-78
2022/07/26 10:35:42;;;;;;;2.63;0.90;;;23.30;86.80;;;;;;5112248;28;20067;-76
2022/07/26 10:38:13;;;;;;;1.58;0.80;;;23.50;85.70;;;;;;5112476;28;20077;-76
2022/07/26 10:40:58;;;;;;;2.35;1.00;;;23.90;86.00;;;;;;5111536;28;20047;-76
2022/07/26 10:43:26;;;;;;;2.50;0.80;;;24.30;86.00;;;;;;5112370;28;20091;-65
2022/07/26 10:46:17;;;;;;;4.45;0.85;;;24.50;85.70;;;;;;5113356;28;20402;-67
2022/07/26 10:49:03;;;;;;;4.13;1.17;;;24.40;85.70;;;;;;5093679;28;20488;-68
2022/07/26 10:51:39;;;;;;;1.10;0.77;;;24.90;84.40;;;;;;5112108;28;20048;-71
2022/07/26 10:54:11;;;;;;;2.22;0.70;;;24.50;84.20;;;;;;5111895;28;20041;-66
2022/07/26 10:56:37;;;;;;;1.15;0.68;;;24.40;84.50;;;;;;5112249;28;20048;-69
2022/07/26 10:59:03;;;;;;;2.08;0.65;;;24.90;83.60;;;;;;5112056;28;20384;-71
2022/07/26 11:01:41;;;;;;;1.73;0.73;;;25.90;82.70;;;;;;5093992;28;20085;-77
2022/07/26 11:04:17;;;;;;;2.45;0.82;;;26.00;81.30;;;;;;5112479;28;20050;-71
2022/07/26 11:06:44;;;;;;;1.42;0.77;;;24.90;81.90;;;;;;5112188;28;20070;-65
2022/07/26 11:09:11;;;;;;;1.02;0.63;;;24.80;82.30;;;;;;5111842;28;20120;-77
2022/07/26 11:11:37;;;;;;;4.10;1.05;;;24.70;83.50;;;;;;5112086;28;20122;-70
2022/07/26 11:14:10;;;;;;;1.40;0.60;;;24.80;81.90;;;;;;5112890;28;20043;-75
2022/07/26 11:16:38;;;;;;;3.90;0.93;;;24.40;81.60;;;;;;5113334;28;20066;-66
2022/07/26 11:19:15;;;;;;;0.75;0.57;;;24.40;83.90;;;;;;5112940;28;20039;-77
2022/07/26 11:21:43;;;;;;;2.70;1.02;;;24.50;82.40;;;;;;5111907;28;20040;-76
2022/07/26 11:24:08;;;;;;;1.52;1.30;;;24.60;84.30;;;;;;5111480;28;20043;-65
2022/07/26 11:26:45;;;;;;;2.35;0.82;;;24.50;84.80;;;;;;5111643;28;20121;-76
2022/07/26 11:29:12;;;;;;;1.38;0.80;;;24.80;84.50;;;;;;5111433;28;20043;-76
2022/07/26 11:31:42;;;;;;;5.22;0.70;;;24.30;82.50;;;;;;5111264;28;20039;-76
2022/07/26 11:34:22;;;;;;;1.55;0.82;;;24.10;82.40;;;;;;5111865;28;20035;-66
2022/07/26 11:36:51;;;;;;;2.55;0.90;;;24.30;82.80;;;;;;5113532;28;20134;-67
2022/07/26 11:39:29;;;;;;;1.73;0.60;;;25.10;80.30;;;;;;5121114;27;20414;-66
2022/07/26 11:42:02;;;;;;;0.70;0.50;;;25.50;80.50;;;;;;5119250;27;20375;-72
2022/07/26 11:44:29;;;;;;;4.55;1.10;;;24.70;82.90;;;;;;5123904;27;20429;-71
2022/07/26 11:46:56;;;;;;;1.58;0.60;;;24.40;81.70;;;;;;5129333;27;20096;-65
2022/07/26 11:49:26;;;;;;;2.55;0.90;;;24.20;82.90;;;;;;5130885;27;20031;-77
2022/07/26 11:51:53;;;;;;;1.25;0.70;;;24.60;83.30;;;;;;5120991;28;20043;-65
2022/07/26 11:54:40;;;;;;;1.73;0.90;;;24.50;82.20;;;;;;5112542;28;20504;-65
2022/07/26 11:57:05;;;;;;;2.95;0.85;;;25.40;82.20;;;;;;5074526;28;20426;-66
2022/07/26 11:59:34;;;;;;;3.47;1.05;;;24.40;80.70;;;;;;5109942;28;20044;-66
2022/07/26 12:02:01;;;;;;;2.25;1.30;;;24.30;82.70;;;;;;5110271;28;20049;-70
2022/07/26 12:04:31;;;;;;;3.95;1.30;;;24.00;84.60;;;;;;5111291;28;20052;-66
2022/07/26 12:06:58;;;;;;;3.87;1.10;;;24.00;84.50;;;;;;5093244;28;20453;-67
2022/07/26 12:09:33;;;;;;;2.45;1.00;;;24.30;84.10;;;;;;5111392;28;20097;-66
2022/07/26 12:11:59;;;;;;;1.98;0.80;;;24.50;84.50;;;;;;5110349;28;20042;-67
2022/07/26 12:14:27;;;;;;;3.75;1.05;;;25.20;85.20;;;;;;5110266;28;20118;-66
2022/07/26 12:16:53;;;;;;;2.83;0.98;;;25.00;82.60;;;;;;5111917;28;20036;-77
2022/07/26 12:19:19;;;;;;;6.05;1.15;;;24.80;82.70;;;;;;5112752;28;20131;-72
2022/07/26 12:21:57;;;;;;;1.48;1.20;;;24.50;83.00;;;;;;5113203;28;20063;-71
2022/07/26 12:24:38;;;;;;;1.52;0.77;;;25.50;83.30;;;;;;5113095;28;20552;-71
2022/07/26 12:27:18;;;;;;;2.97;1.42;;;24.90;81.90;;;;;;5113041;28;20035;-66
2022/07/26 12:29:45;;;;;;;;;;;25.80;84.00;;;;;;5112677;28;20498;-66
2022/07/26 12:32:19;;;;;;;3.53;0.90;;;25.80;80.40;;;;;;5094382;28;20002;-69
2022/07/26 12:34:58;;;;;;;8.68;1.33;;;24.70;81.40;;;;;;5113211;28;20510;-74
2022/07/26 12:37:28;;;;;;;2.88;0.88;;;25.50;81.60;;;;;;5113178;28;20032;-67
2022/07/26 12:40:02;;;;;;;2.95;0.80;;;24.90;80.70;;;;;;5094778;28;20078;-67
2022/07/26 12:42:37;;;;;;;1.33;0.75;;;24.40;80.80;;;;;;5112966;28;20038;-66
2022/07/26 12:45:07;;;;;;;3.67;1.02;;;25.20;79.60;;;;;;5113132;28;20035;-67
2022/07/26 12:47:37;;;;;;;1.55;0.70;;;25.40;79.50;;;;;;5113129;28;20039;-75
2022/07/26 12:50:04;;;;;;;2.70;0.90;;;25.30;79.10;;;;;;5113008;28;20049;-66